TimeCDT,TemperatureF,Dew PointF,Humidity,Sea Level PressureIn,VisibilityMPH,Wind Direction,Wind SpeedMPH,Gust SpeedMPH,PrecipitationIn,Events,Conditions,WindDirDegrees,DateUTC
12:53 AM,37.0,30.0,76,30.16,10.0,East,4.6,-,N/A,,Clear,100,2012-10-30 05:53:00
2:53 AM,37.0,30.0,76,30.15,10.0,Calm,Calm,-,N/A,,Clear,0,2012-10-30 07:53:00
3:53 AM,36.0,28.9,76,30.13,10.0,Calm,Calm,-,N/A,,Clear,0,2012-10-30 08:53:00
4:53 AM,37.0,28.9,73,30.13,10.0,Calm,Calm,-,N/A,,Clear,0,2012-10-30 09:53:00
6:53 AM,36.0,28.0,73,30.12,10.0,Calm,Calm,-,N/A,,Clear,0,2012-10-30 11:53:00
7:53 AM,35.1,28.0,76,30.12,10.0,Calm,Calm,-,N/A,,Clear,0,2012-10-30 12:53:00
8:53 AM,37.9,32.0,79,30.12,10.0,Calm,Calm,-,N/A,,Clear,0,2012-10-30 13:53:00
9:53 AM,45.0,32.0,60,30.11,10.0,East,5.8,-,N/A,,Clear,100,2012-10-30 14:53:00
10:53 AM,48.9,30.0,48,30.10,10.0,East,9.2,-,N/A,,Clear,100,2012-10-30 15:53:00
11:53 AM,51.1,28.9,43,30.09,10.0,Variable,5.8,-,N/A,,Clear,0,2012-10-30 16:53:00
12:53 PM,54.0,27.0,35,30.07,10.0,Calm,Calm,-,N/A,,Clear,0,2012-10-30 17:53:00
1:53 PM,55.9,25.0,30,30.05,10.0,Calm,Calm,-,N/A,,Clear,0,2012-10-30 18:53:00
2:53 PM,55.0,26.1,33,30.02,10.0,North,4.6,-,N/A,,Mostly Cloudy,360,2012-10-30 19:53:00
3:53 PM,55.0,28.0,35,30.01,10.0,NNE,5.8,-,N/A,,Mostly Cloudy,20,2012-10-30 20:53:00
4:53 PM,54.0,26.1,34,30.00,10.0,North,4.6,-,N/A,,Scattered Clouds,350,2012-10-30 21:53:00
5:53 PM,52.0,28.0,40,30.01,10.0,NNW,4.6,-,N/A,,Clear,330,2012-10-30 22:53:00
7:53 PM,48.9,30.0,48,30.01,10.0,NW,4.6,-,N/A,,Overcast,320,2012-10-31 00:53:00
8:53 PM,46.9,28.9,50,30.01,10.0,NW,6.9,-,N/A,,Overcast,320,2012-10-31 01:53:00
9:53 PM,44.1,27.0,51,30.02,10.0,WNW,5.8,-,N/A,,Clear,300,2012-10-31 02:53:00
10:53 PM,43.0,26.1,51,30.01,10.0,NW,4.6,-,N/A,,Partly Cloudy,310,2012-10-31 03:53:00
11:53 PM,43.0,27.0,53,30.02,10.0,NW,4.6,-,N/A,,Clear,320,2012-10-31 04:53:00